sensor_id;sensor_type;location;lat;lon;timestamp;pressure;altitude;pressure_sealevel;temperature;humidity
57644;BME280;43474;46.510;6.686;2023-11-19T00:00:16;97024.78;;;6.44;100.00
57644;BME280;43474;46.510;6.686;2023-11-19T00:03:02;96992.06;;;6.25;100.00
57644;BME280;43474;46.510;6.686;2023-11-19T00:05:28;97034.72;;;6.48;100.00
57644;BME280;43474;46.510;6.686;2023-11-19T00:07:54;97015.63;;;6.40;100.00
57644;BME280;43474;46.510;6.686;2023-11-19T00:10:20;96994.97;;;6.37;100.00
57644;BME280;43474;46.510;6.686;2023-11-19T00:12:47;96990.47;;;6.31;100.00
57644;BME280;43474;46.510;6.686;2023-11-19T00:15:14;96982.34;;;6.26;100.00
57644;BME280;43474;46.510;6.686;2023-11-19T00:17:41;96972.47;;;6.28;100.00
57644;BME280;43474;46.510;6.686;2023-11-19T00:20:15;97012.72;;;6.63;100.00
57644;BME280;43474;46.510;6.686;2023-11-19T00:22:41;97017.78;;;6.71;100.00
57644;BME280;43474;46.510;6.686;2023-11-19T00:25:08;97015.56;;;6.68;100.00
57644;BME280;43474;46.510;6.686;2023-11-19T00:27:35;96995.88;;;6.64;100.00
57644;BME280;43474;46.510;6.686;2023-11-19T00:30:01;96988.81;;;6.64;100.00
57644;BME280;43474;46.510;6.686;2023-11-19T00:32:26;96946.19;;;6.41;100.00
57644;BME280;43474;46.510;6.686;2023-11-19T00:34:52;96991.63;;;6.63;100.00
57644;BME280;43474;46.510;6.686;2023-11-19T00:37:17;96958.75;;;6.45;100.00
57644;BME280;43474;46.510;6.686;2023-11-19T00:39:43;96976.63;;;6.57;100.00
57644;BME280;43474;46.510;6.686;2023-11-19T00:42:09;96956.94;;;6.46;100.00
57644;BME280;43474;46.510;6.686;2023-11-19T00:44:39;96981.91;;;6.63;100.00
57644;BME280;43474;46.510;6.686;2023-11-19T00:47:05;96956.53;;;6.49;100.00
57644;BME280;43474;46.510;6.686;2023-11-19T00:49:31;96972.19;;;6.64;100.00
57644;BME280;43474;46.510;6.686;2023-11-19T00:51:58;96987.81;;;6.72;100.00
57644;BME280;43474;46.510;6.686;2023-11-19T00:54:24;96948.25;;;6.52;100.00
57644;BME280;43474;46.510;6.686;2023-11-19T00:56:54;96926.94;;;6.34;100.00
57644;BME280;43474;46.510;6.686;2023-11-19T00:59:20;96958.78;;;6.52;100.00
57644;BME280;43474;46.510;6.686;2023-11-19T01:01:46;96928.38;;;6.43;100.00
57644;BME280;43474;46.510;6.686;2023-11-19T01:04:16;96966.13;;;6.63;100.00
57644;BME280;43474;46.510;6.686;2023-11-19T01:06:42;96951.88;;;6.51;100.00
57644;BME280;43474;46.510;6.686;2023-11-19T01:09:08;96947.66;;;6.57;100.00
57644;BME280;43474;46.510;6.686;2023-11-19T01:11:34;96984.41;;;6.78;100.00
57644;BME280;43474;46.510;6.686;2023-11-19T01:14:01;96985.00;;;6.80;100.00
57644;BME280;43474;46.510;6.686;2023-11-19T01:16:26;96973.22;;;6.63;100.00
57644;BME280;43474;46.510;6.686;2023-11-19T01:18:52;96986.88;;;6.86;100.00
57644;BME280;43474;46.510;6.686;2023-11-19T01:21:18;96992.09;;;6.80;100.00
57644;BME280;43474;46.510;6.686;2023-11-19T01:23:44;96958.19;;;6.57;100.00
57644;BME280;43474;46.510;6.686;2023-11-19T01:26:11;96974.03;;;6.70;100.00
57644;BME280;43474;46.510;6.686;2023-11-19T01:28:41;96968.75;;;6.57;100.00
57644;BME280;43474;46.510;6.686;2023-11-19T01:31:11;96998.16;;;6.73;100.00
57644;BME280;43474;46.510;6.686;2023-11-19T01:33:36;96964.06;;;6.52;100.00
57644;BME280;43474;46.510;6.686;2023-11-19T01:36:02;96927.91;;;6.26;100.00
57644;BME280;43474;46.510;6.686;2023-11-19T01:38:29;96973.00;;;6.58;100.00
57644;BME280;43474;46.510;6.686;2023-11-19T01:40:57;96973.84;;;6.71;100.00
57644;BME280;43474;46.510;6.686;2023-11-19T01:43:32;96994.56;;;6.94;100.00
57644;BME280;43474;46.510;6.686;2023-11-19T01:45:58;96952.19;;;6.96;100.00
57644;BME280;43474;46.510;6.686;2023-11-19T01:48:24;96954.19;;;6.81;100.00
57644;BME280;43474;46.510;6.686;2023-11-19T01:50:50;96984.44;;;6.98;100.00
57644;BME280;43474;46.510;6.686;2023-11-19T01:53:18;96953.38;;;6.73;100.00
57644;BME280;43474;46.510;6.686;2023-11-19T01:55:44;96957.03;;;6.72;100.00
57644;BME280;43474;46.510;6.686;2023-11-19T01:58:11;96952.75;;;6.65;100.00
57644;BME280;43474;46.510;6.686;2023-11-19T02:00:37;96953.81;;;6.77;100.00
57644;BME280;43474;46.510;6.686;2023-11-19T02:03:06;96969.41;;;6.85;100.00
57644;BME280;43474;46.510;6.686;2023-11-19T02:05:33;96950.16;;;6.71;100.00
57644;BME280;43474;46.510;6.686;2023-11-19T02:08:00;96926.41;;;6.65;100.00
57644;BME280;43474;46.510;6.686;2023-11-19T02:10:26;96915.91;;;6.71;100.00
57644;BME280;43474;46.510;6.686;2023-11-19T02:12:52;96961.34;;;7.07;100.00
57644;BME280;43474;46.510;6.686;2023-11-19T02:15:18;96931.53;;;6.93;100.00
57644;BME280;43474;46.510;6.686;2023-11-19T02:17:50;96925.63;;;6.78;100.00
57644;BME280;43474;46.510;6.686;2023-11-19T02:20:17;96899.25;;;6.64;100.00
57644;BME280;43474;46.510;6.686;2023-11-19T02:22:46;96941.06;;;6.94;100.00
57644;BME280;43474;46.510;6.686;2023-11-19T02:25:20;96929.69;;;6.80;100.00
57644;BME280;43474;46.510;6.686;2023-11-19T02:27:59;96935.59;;;7.02;100.00
57644;BME280;43474;46.510;6.686;2023-11-19T02:30:25;96912.50;;;6.97;100.00
57644;BME280;43474;46.510;6.686;2023-11-19T02:32:58;96929.91;;;7.05;100.00
57644;BME280;43474;46.510;6.686;2023-11-19T02:35:27;96933.56;;;7.04;100.00
57644;BME280;43474;46.510;6.686;2023-11-19T02:37:56;96900.31;;;6.83;100.00
57644;BME280;43474;46.510;6.686;2023-11-19T02:40:22;96910.03;;;6.89;100.00
57644;BME280;43474;46.510;6.686;2023-11-19T02:42:51;96903.97;;;6.95;100.00
57644;BME280;43474;46.510;6.686;2023-11-19T02:45:16;96878.63;;;6.88;100.00
57644;BME280;43474;46.510;6.686;2023-11-19T02:47:43;96920.81;;;7.08;100.00
57644;BME280;43474;46.510;6.686;2023-11-19T02:50:13;96883.28;;;6.86;100.00
57644;BME280;43474;46.510;6.686;2023-11-19T02:52:42;96875.59;;;6.91;100.00
57644;BME280;43474;46.510;6.686;2023-11-19T02:55:09;96904.78;;;7.16;100.00
57644;BME280;43474;46.510;6.686;2023-11-19T02:57:41;96918.78;;;7.10;100.00
57644;BME280;43474;46.510;6.686;2023-11-19T03:00:21;96944.31;;;7.16;100.00
57644;BME280;43474;46.510;6.686;2023-11-19T03:03:01;96924.25;;;7.08;100.00
57644;BME280;43474;46.510;6.686;2023-11-19T03:05:42;96920.59;;;7.16;100.00
57644;BME280;43474;46.510;6.686;2023-11-19T03:08:10;96924.66;;;7.25;100.00
57644;BME280;43474;46.510;6.686;2023-11-19T03:10:35;96936.03;;;7.32;100.00
57644;BME280;43474;46.510;6.686;2023-11-19T03:13:01;96926.69;;;7.23;100.00
57644;BME280;43474;46.510;6.686;2023-11-19T03:15:27;96906.59;;;7.15;100.00
57644;BME280;43474;46.510;6.686;2023-11-19T03:17:53;96878.44;;;7.03;100.00
57644;BME280;43474;46.510;6.686;2023-11-19T03:20:19;96898.91;;;7.34;100.00
57644;BME280;43474;46.510;6.686;2023-11-19T03:22:46;96842.34;;;7.10;100.00
57644;BME280;43474;46.510;6.686;2023-11-19T03:25:12;96894.84;;;7.44;100.00
57644;BME280;43474;46.510;6.686;2023-11-19T03:27:39;96845.78;;;7.10;100.00
57644;BME280;43474;46.510;6.686;2023-11-19T03:30:08;96846.63;;;7.04;100.00
57644;BME280;43474;46.510;6.686;2023-11-19T03:32:37;96852.09;;;7.09;100.00
57644;BME280;43474;46.510;6.686;2023-11-19T03:35:05;96848.44;;;7.23;100.00
57644;BME280;43474;46.510;6.686;2023-11-19T03:37:33;96879.38;;;7.74;100.00
57644;BME280;43474;46.510;6.686;2023-11-19T03:39:59;96861.69;;;7.82;100.00
57644;BME280;43474;46.510;6.686;2023-11-19T03:42:29;96881.59;;;7.77;100.00
57644;BME280;43474;46.510;6.686;2023-11-19T03:44:57;96891.75;;;7.74;100.00
57644;BME280;43474;46.510;6.686;2023-11-19T03:47:23;96849.84;;;7.26;100.00
57644;BME280;43474;46.510;6.686;2023-11-19T03:49:49;96876.78;;;7.48;100.00
57644;BME280;43474;46.510;6.686;2023-11-19T03:52:16;96863.63;;;7.28;100.00
57644;BME280;43474;46.510;6.686;2023-11-19T03:54:42;96817.00;;;7.09;100.00
57644;BME280;43474;46.510;6.686;2023-11-19T03:57:08;96865.25;;;7.42;100.00
57644;BME280;43474;46.510;6.686;2023-11-19T03:59:36;96862.13;;;7.65;100.00
57644;BME280;43474;46.510;6.686;2023-11-19T04:02:02;96829.69;;;7.58;100.00
57644;BME280;43474;46.510;6.686;2023-11-19T04:04:28;96820.00;;;7.39;100.00
57644;BME280;43474;46.510;6.686;2023-11-19T04:06:55;96868.47;;;7.58;100.00
57644;BME280;43474;46.510;6.686;2023-11-19T04:09:21;96871.28;;;7.63;100.00
57644;BME280;43474;46.510;6.686;2023-11-19T04:11:47;96835.97;;;7.64;100.00
57644;BME280;43474;46.510;6.686;2023-11-19T04:14:13;96810.31;;;7.26;100.00
57644;BME280;43474;46.510;6.686;2023-11-19T04:16:40;96848.78;;;7.40;100.00
57644;BME280;43474;46.510;6.686;2023-11-19T04:19:06;96844.75;;;7.44;100.00
57644;BME280;43474;46.510;6.686;2023-11-19T04:21:32;96853.66;;;7.57;100.00
57644;BME280;43474;46.510;6.686;2023-11-19T04:23:58;96873.94;;;7.56;100.00
57644;BME280;43474;46.510;6.686;2023-11-19T04:26:24;96873.34;;;7.47;100.00
57644;BME280;43474;46.510;6.686;2023-11-19T04:28:50;96813.97;;;7.12;100.00
57644;BME280;43474;46.510;6.686;2023-11-19T04:31:16;96873.16;;;7.42;100.00
57644;BME280;43474;46.510;6.686;2023-11-19T04:33:42;96842.94;;;7.32;100.00
57644;BME280;43474;46.510;6.686;2023-11-19T04:36:09;96872.53;;;7.47;100.00
57644;BME280;43474;46.510;6.686;2023-11-19T04:38:35;96887.56;;;7.46;100.00
57644;BME280;43474;46.510;6.686;2023-11-19T04:41:01;96874.34;;;7.53;100.00
57644;BME280;43474;46.510;6.686;2023-11-19T04:43:27;96815.59;;;7.26;100.00
57644;BME280;43474;46.510;6.686;2023-11-19T04:45:52;96855.84;;;7.60;100.00
57644;BME280;43474;46.510;6.686;2023-11-19T04:48:18;96829.13;;;7.43;100.00
57644;BME280;43474;46.510;6.686;2023-11-19T04:50:44;96847.59;;;7.43;100.00
57644;BME280;43474;46.510;6.686;2023-11-19T04:53:09;96863.22;;;7.51;100.00
57644;BME280;43474;46.510;6.686;2023-11-19T04:55:35;96872.06;;;7.70;100.00
57644;BME280;43474;46.510;6.686;2023-11-19T04:58:01;96863.09;;;7.84;100.00
57644;BME280;43474;46.510;6.686;2023-11-19T05:00:26;96819.31;;;7.70;100.00
57644;BME280;43474;46.510;6.686;2023-11-19T05:02:52;96826.69;;;7.48;100.00
57644;BME280;43474;46.510;6.686;2023-11-19T05:05:18;96797.69;;;7.35;100.00
57644;BME280;43474;46.510;6.686;2023-11-19T05:07:43;96817.84;;;7.81;100.00
57644;BME280;43474;46.510;6.686;2023-11-19T05:10:09;96806.59;;;7.54;100.00
57644;BME280;43474;46.510;6.686;2023-11-19T05:12:35;96851.56;;;7.78;100.00
57644;BME280;43474;46.510;6.686;2023-11-19T05:15:01;96834.38;;;7.56;100.00
57644;BME280;43474;46.510;6.686;2023-11-19T05:17:26;96863.09;;;7.84;100.00
57644;BME280;43474;46.510;6.686;2023-11-19T05:19:52;96833.34;;;7.64;100.00
57644;BME280;43474;46.510;6.686;2023-11-19T05:22:18;96845.75;;;7.57;100.00
57644;BME280;43474;46.510;6.686;2023-11-19T05:24:43;96884.25;;;7.77;100.00
57644;BME280;43474;46.510;6.686;2023-11-19T05:27:09;96864.97;;;7.77;100.00
57644;BME280;43474;46.510;6.686;2023-11-19T05:29:37;96853.00;;;7.68;100.00
57644;BME280;43474;46.510;6.686;2023-11-19T05:32:05;96828.09;;;7.50;100.00
57644;BME280;43474;46.510;6.686;2023-11-19T05:34:30;96872.44;;;7.87;100.00
57644;BME280;43474;46.510;6.686;2023-11-19T05:36:56;96857.63;;;7.86;100.00
57644;BME280;43474;46.510;6.686;2023-11-19T05:39:23;96852.31;;;7.92;100.00
57644;BME280;43474;46.510;6.686;2023-11-19T05:41:50;96805.94;;;7.71;100.00
57644;BME280;43474;46.510;6.686;2023-11-19T05:44:16;96801.91;;;7.62;100.00
57644;BME280;43474;46.510;6.686;2023-11-19T05:46:42;96804.69;;;7.74;100.00
57644;BME280;43474;46.510;6.686;2023-11-19T05:49:09;96798.97;;;7.84;100.00
57644;BME280;43474;46.510;6.686;2023-11-19T05:51:41;96835.78;;;8.17;100.00
57644;BME280;43474;46.510;6.686;2023-11-19T05:54:08;96818.75;;;8.13;100.00
57644;BME280;43474;46.510;6.686;2023-11-19T05:56:33;96808.66;;;8.41;100.00
57644;BME280;43474;46.510;6.686;2023-11-19T05:58:59;96781.38;;;8.47;100.00
57644;BME280;43474;46.510;6.686;2023-11-19T06:01:26;96818.25;;;8.92;100.00
57644;BME280;43474;46.510;6.686;2023-11-19T06:03:52;96771.06;;;8.71;100.00
57644;BME280;43474;46.510;6.686;2023-11-19T06:06:18;96793.50;;;8.87;100.00
57644;BME280;43474;46.510;6.686;2023-11-19T06:08:44;96821.44;;;9.01;100.00
57644;BME280;43474;46.510;6.686;2023-11-19T06:11:10;96792.72;;;8.79;100.00
57644;BME280;43474;46.510;6.686;2023-11-19T06:13:40;96817.44;;;8.92;100.00
57644;BME280;43474;46.510;6.686;2023-11-19T06:16:06;96804.66;;;8.89;100.00
57644;BME280;43474;46.510;6.686;2023-11-19T06:18:32;96816.34;;;8.99;100.00
57644;BME280;43474;46.510;6.686;2023-11-19T06:20:57;96835.56;;;9.13;100.00
57644;BME280;43474;46.510;6.686;2023-11-19T06:23:23;96807.75;;;8.86;100.00
57644;BME280;43474;46.510;6.686;2023-11-19T06:25:49;96803.19;;;8.68;100.00
57644;BME280;43474;46.510;6.686;2023-11-19T06:28:15;96805.66;;;8.63;100.00
57644;BME280;43474;46.510;6.686;2023-11-19T06:30:40;96820.88;;;8.67;100.00
57644;BME280;43474;46.510;6.686;2023-11-19T06:33:07;96838.72;;;8.72;100.00
57644;BME280;43474;46.510;6.686;2023-11-19T06:35:32;96816.69;;;8.53;100.00
57644;BME280;43474;46.510;6.686;2023-11-19T06:38:02;96825.22;;;8.55;100.00
57644;BME280;43474;46.510;6.686;2023-11-19T06:40:30;96818.66;;;8.64;100.00
57644;BME280;43474;46.510;6.686;2023-11-19T06:42:56;96842.41;;;8.96;100.00
57644;BME280;43474;46.510;6.686;2023-11-19T06:45:22;96795.44;;;8.73;100.00
57644;BME280;43474;46.510;6.686;2023-11-19T06:47:48;96832.50;;;8.91;100.00
57644;BME280;43474;46.510;6.686;2023-11-19T06:50:13;96817.00;;;8.95;100.00
57644;BME280;43474;46.510;6.686;2023-11-19T06:52:40;96857.09;;;9.17;100.00
57644;BME280;43474;46.510;6.686;2023-11-19T06:55:06;96846.09;;;9.38;100.00
57644;BME280;43474;46.510;6.686;2023-11-19T06:57:32;96838.59;;;9.17;100.00
57644;BME280;43474;46.510;6.686;2023-11-19T06:59:58;96877.91;;;9.06;100.00
57644;BME280;43474;46.510;6.686;2023-11-19T07:02:24;96869.84;;;8.95;100.00
57644;BME280;43474;46.510;6.686;2023-11-19T07:04:51;96903.38;;;9.01;100.00
57644;BME280;43474;46.510;6.686;2023-11-19T07:07:16;96878.34;;;9.03;100.00
57644;BME280;43474;46.510;6.686;2023-11-19T07:09:42;96896.97;;;8.84;100.00
57644;BME280;43474;46.510;6.686;2023-11-19T07:12:08;96878.19;;;8.67;100.00
57644;BME280;43474;46.510;6.686;2023-11-19T07:14:34;96910.25;;;8.77;100.00
57644;BME280;43474;46.510;6.686;2023-11-19T07:17:00;96917.94;;;8.78;100.00
57644;BME280;43474;46.510;6.686;2023-11-19T07:19:26;96861.47;;;8.41;100.00
57644;BME280;43474;46.510;6.686;2023-11-19T07:21:52;96873.84;;;8.47;100.00
57644;BME280;43474;46.510;6.686;2023-11-19T07:24:20;96889.44;;;8.56;100.00
57644;BME280;43474;46.510;6.686;2023-11-19T07:26:47;96912.38;;;8.62;100.00
57644;BME280;43474;46.510;6.686;2023-11-19T07:29:13;96887.28;;;8.39;100.00
57644;BME280;43474;46.510;6.686;2023-11-19T07:31:40;96915.63;;;8.57;100.00
57644;BME280;43474;46.510;6.686;2023-11-19T07:34:06;96906.91;;;8.57;100.00
57644;BME280;43474;46.510;6.686;2023-11-19T07:36:32;96904.69;;;8.53;100.00
57644;BME280;43474;46.510;6.686;2023-11-19T07:38:58;96892.53;;;8.46;100.00
57644;BME280;43474;46.510;6.686;2023-11-19T07:41:24;96880.28;;;8.58;100.00
57644;BME280;43474;46.510;6.686;2023-11-19T07:43:50;96887.50;;;8.69;100.00
57644;BME280;43474;46.510;6.686;2023-11-19T07:46:17;96883.50;;;8.60;100.00
57644;BME280;43474;46.510;6.686;2023-11-19T07:48:45;96895.66;;;8.68;100.00
57644;BME280;43474;46.510;6.686;2023-11-19T07:51:13;96921.56;;;8.91;100.00
57644;BME280;43474;46.510;6.686;2023-11-19T07:53:39;96904.16;;;8.70;100.00
57644;BME280;43474;46.510;6.686;2023-11-19T07:56:09;96876.59;;;8.59;100.00
57644;BME280;43474;46.510;6.686;2023-11-19T07:58:35;96918.63;;;8.99;100.00
57644;BME280;43474;46.510;6.686;2023-11-19T08:01:02;96869.41;;;8.73;100.00
57644;BME280;43474;46.510;6.686;2023-11-19T08:03:28;96875.28;;;9.06;100.00
57644;BME280;43474;46.510;6.686;2023-11-19T08:05:55;96876.50;;;9.04;100.00
57644;BME280;43474;46.510;6.686;2023-11-19T08:08:22;96901.97;;;9.23;100.00
57644;BME280;43474;46.510;6.686;2023-11-19T08:10:48;96918.97;;;9.34;100.00
57644;BME280;43474;46.510;6.686;2023-11-19T08:13:14;96912.13;;;9.26;100.00
57644;BME280;43474;46.510;6.686;2023-11-19T08:15:40;96902.78;;;9.24;100.00
57644;BME280;43474;46.510;6.686;2023-11-19T08:18:06;96926.25;;;9.39;100.00
57644;BME280;43474;46.510;6.686;2023-11-19T08:20:33;96895.06;;;9.22;100.00
57644;BME280;43474;46.510;6.686;2023-11-19T08:22:59;96917.38;;;9.33;100.00
57644;BME280;43474;46.510;6.686;2023-11-19T08:25:24;96940.84;;;9.48;100.00
57644;BME280;43474;46.510;6.686;2023-11-19T08:27:50;96919.91;;;9.46;100.00
57644;BME280;43474;46.510;6.686;2023-11-19T08:30:16;96914.66;;;9.40;100.00
57644;BME280;43474;46.510;6.686;2023-11-19T08:32:41;96906.56;;;9.35;100.00
57644;BME280;43474;46.510;6.686;2023-11-19T08:35:07;96903.91;;;9.35;100.00
57644;BME280;43474;46.510;6.686;2023-11-19T08:37:34;96953.97;;;9.61;100.00
57644;BME280;43474;46.510;6.686;2023-11-19T08:40:02;96955.34;;;9.89;100.00
57644;BME280;43474;46.510;6.686;2023-11-19T08:42:29;96923.84;;;9.37;100.00
57644;BME280;43474;46.510;6.686;2023-11-19T08:44:55;96928.16;;;9.31;100.00
57644;BME280;43474;46.510;6.686;2023-11-19T08:47:21;96949.97;;;9.52;100.00
57644;BME280;43474;46.510;6.686;2023-11-19T08:49:51;96903.66;;;9.18;100.00
57644;BME280;43474;46.510;6.686;2023-11-19T08:52:20;96944.53;;;9.47;100.00
57644;BME280;43474;46.510;6.686;2023-11-19T08:54:46;96891.84;;;9.20;100.00
57644;BME280;43474;46.510;6.686;2023-11-19T08:57:11;96915.97;;;9.30;100.00
57644;BME280;43474;46.510;6.686;2023-11-19T08:59:39;96936.16;;;9.50;100.00
57644;BME280;43474;46.510;6.686;2023-11-19T09:02:08;96911.75;;;9.23;100.00
57644;BME280;43474;46.510;6.686;2023-11-19T09:04:34;96933.84;;;9.35;100.00
57644;BME280;43474;46.510;6.686;2023-11-19T09:07:01;96900.09;;;9.30;100.00
57644;BME280;43474;46.510;6.686;2023-11-19T09:09:27;96892.69;;;9.39;100.00
57644;BME280;43474;46.510;6.686;2023-11-19T09:11:52;96895.50;;;9.44;100.00
57644;BME280;43474;46.510;6.686;2023-11-19T09:14:18;96920.28;;;9.50;100.00
57644;BME280;43474;46.510;6.686;2023-11-19T09:16:46;96932.03;;;9.54;100.00
57644;BME280;43474;46.510;6.686;2023-11-19T09:19:12;96953.47;;;9.71;100.00
57644;BME280;43474;46.510;6.686;2023-11-19T09:21:37;96914.38;;;9.48;100.00
57644;BME280;43474;46.510;6.686;2023-11-19T09:24:04;96927.88;;;9.40;100.00
57644;BME280;43474;46.510;6.686;2023-11-19T09:26:30;96932.97;;;9.41;100.00
57644;BME280;43474;46.510;6.686;2023-11-19T09:28:56;96957.16;;;9.70;100.00
57644;BME280;43474;46.510;6.686;2023-11-19T09:31:22;96948.47;;;9.63;100.00
57644;BME280;43474;46.510;6.686;2023-11-19T09:33:48;96925.78;;;9.48;100.00
57644;BME280;43474;46.510;6.686;2023-11-19T09:36:13;96950.38;;;9.74;100.00
57644;BME280;43474;46.510;6.686;2023-11-19T09:38:40;96963.22;;;9.95;100.00
57644;BME280;43474;46.510;6.686;2023-11-19T09:41:06;96960.59;;;9.95;100.00
57644;BME280;43474;46.510;6.686;2023-11-19T09:43:35;96962.34;;;10.01;100.00
57644;BME280;43474;46.510;6.686;2023-11-19T09:46:05;96938.94;;;9.98;100.00
57644;BME280;43474;46.510;6.686;2023-11-19T09:48:33;96906.72;;;9.83;100.00
57644;BME280;43474;46.510;6.686;2023-11-19T09:51:00;96959.84;;;10.06;100.00
57644;BME280;43474;46.510;6.686;2023-11-19T09:53:26;96938.22;;;9.91;100.00
57644;BME280;43474;46.510;6.686;2023-11-19T09:55:53;96895.59;;;9.74;100.00
57644;BME280;43474;46.510;6.686;2023-11-19T09:58:19;96951.00;;;9.94;100.00
57644;BME280;43474;46.510;6.686;2023-11-19T10:00:44;96939.97;;;9.97;100.00
57644;BME280;43474;46.510;6.686;2023-11-19T10:03:11;96932.19;;;10.21;100.00
57644;BME280;43474;46.510;6.686;2023-11-19T10:05:37;96878.06;;;9.80;100.00
57644;BME280;43474;46.510;6.686;2023-11-19T10:08:05;96932.41;;;10.19;100.00
57644;BME280;43474;46.510;6.686;2023-11-19T10:10:31;96917.66;;;10.30;100.00
57644;BME280;43474;46.510;6.686;2023-11-19T10:12:57;96867.31;;;10.12;100.00
57644;BME280;43474;46.510;6.686;2023-11-19T10:15:24;96901.41;;;10.56;100.00
57644;BME280;43474;46.510;6.686;2023-11-19T10:17:50;96932.91;;;10.95;100.00
57644;BME280;43474;46.510;6.686;2023-11-19T10:20:16;96938.25;;;10.76;100.00
57644;BME280;43474;46.510;6.686;2023-11-19T10:22:42;96877.56;;;10.26;100.00
57644;BME280;43474;46.510;6.686;2023-11-19T10:25:22;96933.66;;;10.53;100.00
57644;BME280;43474;46.510;6.686;2023-11-19T10:27:50;96920.63;;;10.52;100.00
57644;BME280;43474;46.510;6.686;2023-11-19T10:30:23;96931.00;;;10.53;100.00
57644;BME280;43474;46.510;6.686;2023-11-19T10:33:11;96935.78;;;10.63;100.00
57644;BME280;43474;46.510;6.686;2023-11-19T10:35:55;96918.34;;;10.55;100.00
57644;BME280;43474;46.510;6.686;2023-11-19T10:38:24;96924.00;;;10.59;100.00
57644;BME280;43474;46.510;6.686;2023-11-19T10:40:51;96939.84;;;10.66;100.00
57644;BME280;43474;46.510;6.686;2023-11-19T10:43:18;96949.03;;;10.63;100.00
57644;BME280;43474;46.510;6.686;2023-11-19T10:45:44;96932.31;;;10.63;100.00
57644;BME280;43474;46.510;6.686;2023-11-19T10:48:10;96935.88;;;10.56;100.00
57644;BME280;43474;46.510;6.686;2023-11-19T10:50:39;96941.41;;;10.55;100.00
57644;BME280;43474;46.510;6.686;2023-11-19T10:53:05;96941.53;;;10.60;100.00
57644;BME280;43474;46.510;6.686;2023-11-19T10:55:33;96951.25;;;10.66;100.00
57644;BME280;43474;46.510;6.686;2023-11-19T11:00:43;96947.69;;;10.72;100.00
57644;BME280;43474;46.510;6.686;2023-11-19T11:03:17;96962.03;;;10.83;100.00
57644;BME280;43474;46.510;6.686;2023-11-19T11:05:46;96919.34;;;10.73;100.00
57644;BME280;43474;46.510;6.686;2023-11-19T11:08:13;96879.06;;;10.64;100.00
57644;BME280;43474;46.510;6.686;2023-11-19T11:10:51;96890.81;;;10.56;100.00
57644;BME280;43474;46.510;6.686;2023-11-19T11:13:18;96932.47;;;10.68;100.00
57644;BME280;43474;46.510;6.686;2023-11-19T11:15:47;96925.41;;;10.61;100.00
57644;BME280;43474;46.510;6.686;2023-11-19T11:18:13;96909.88;;;10.65;100.00
57644;BME280;43474;46.510;6.686;2023-11-19T11:20:40;96927.97;;;10.68;100.00
57644;BME280;43474;46.510;6.686;2023-11-19T11:29:03;96913.69;;;10.99;100.00
57644;BME280;43474;46.510;6.686;2023-11-19T11:31:39;96918.75;;;11.01;100.00
57644;BME280;43474;46.510;6.686;2023-11-19T11:37:27;96904.03;;;11.17;100.00
57644;BME280;43474;46.510;6.686;2023-11-19T11:39:57;96880.97;;;11.41;100.00
57644;BME280;43474;46.510;6.686;2023-11-19T11:45:06;96907.66;;;11.69;100.00
57644;BME280;43474;46.510;6.686;2023-11-19T11:50:26;96882.47;;;11.36;100.00
57644;BME280;43474;46.510;6.686;2023-11-19T11:58:25;96886.06;;;11.42;100.00
57644;BME280;43474;46.510;6.686;2023-11-19T12:00:52;96892.03;;;11.26;100.00
57644;BME280;43474;46.510;6.686;2023-11-19T12:03:20;96886.63;;;11.21;100.00
57644;BME280;43474;46.510;6.686;2023-11-19T12:05:48;96850.03;;;10.99;100.00
57644;BME280;43474;46.510;6.686;2023-11-19T12:08:15;96873.19;;;11.04;100.00
57644;BME280;43474;46.510;6.686;2023-11-19T12:10:49;96824.06;;;10.90;100.00
57644;BME280;43474;46.510;6.686;2023-11-19T12:13:20;96858.13;;;11.04;100.00
57644;BME280;43474;46.510;6.686;2023-11-19T12:18:27;96888.91;;;11.17;100.00
57644;BME280;43474;46.510;6.686;2023-11-19T12:20:57;96870.22;;;11.12;100.00
57644;BME280;43474;46.510;6.686;2023-11-19T12:23:27;96873.97;;;10.81;100.00
57644;BME280;43474;46.510;6.686;2023-11-19T12:25:54;96853.09;;;10.43;100.00
57644;BME280;43474;46.510;6.686;2023-11-19T12:28:20;96896.25;;;10.61;100.00
57644;BME280;43474;46.510;6.686;2023-11-19T12:30:46;96874.81;;;10.33;100.00
57644;BME280;43474;46.510;6.686;2023-11-19T12:33:13;96843.97;;;10.39;100.00
57644;BME280;43474;46.510;6.686;2023-11-19T12:35:44;96853.84;;;10.61;100.00
57644;BME280;43474;46.510;6.686;2023-11-19T12:38:24;96887.50;;;11.03;100.00
57644;BME280;43474;46.510;6.686;2023-11-19T12:41:07;96875.06;;;11.15;100.00
57644;BME280;43474;46.510;6.686;2023-11-19T12:43:33;96869.78;;;11.15;100.00
57644;BME280;43474;46.510;6.686;2023-11-19T12:46:32;96880.28;;;11.22;100.00
57644;BME280;43474;46.510;6.686;2023-11-19T12:48:58;96866.88;;;11.17;100.00
57644;BME280;43474;46.510;6.686;2023-11-19T12:51:30;96868.03;;;11.21;100.00
57644;BME280;43474;46.510;6.686;2023-11-19T12:53:57;96862.38;;;11.17;100.00
57644;BME280;43474;46.510;6.686;2023-11-19T12:56:24;96817.50;;;10.92;100.00
57644;BME280;43474;46.510;6.686;2023-11-19T12:58:50;96863.53;;;11.33;100.00
57644;BME280;43474;46.510;6.686;2023-11-19T13:01:20;96835.81;;;10.94;100.00
57644;BME280;43474;46.510;6.686;2023-11-19T13:03:46;96859.38;;;11.02;100.00
57644;BME280;43474;46.510;6.686;2023-11-19T13:06:14;96855.53;;;10.86;100.00
57644;BME280;43474;46.510;6.686;2023-11-19T13:08:46;96842.69;;;10.71;100.00
57644;BME280;43474;46.510;6.686;2023-11-19T13:11:14;96829.59;;;10.88;100.00
57644;BME280;43474;46.510;6.686;2023-11-19T13:13:57;96819.09;;;10.81;100.00
57644;BME280;43474;46.510;6.686;2023-11-19T13:16:24;96850.25;;;10.98;100.00
57644;BME280;43474;46.510;6.686;2023-11-19T13:18:51;96833.63;;;10.91;100.00
57644;BME280;43474;46.510;6.686;2023-11-19T13:21:17;96840.91;;;11.19;100.00
57644;BME280;43474;46.510;6.686;2023-11-19T13:23:43;96867.97;;;11.39;100.00